Time;durP1;ratioP1;P1;durP2;ratioP2;P2;SDS_P1;SDS_P2;PMS_P1;PMS_P2;Temp;Humidity;BMP_temperature;BMP_pressure;BME280_temperature;BME280_humidity;BME280_pressure;Samples;Min_cycle;Max_cycle;Signal;HPM_P1;HPM_P2
2023/09/02 00:00:38;;;;;;;9.13;3.53;;;;;;;15.69;100.00;100768.12;5105931;56;1143271;-66
2023/09/02 00:05:45;;;;;;;12.60;4.37;;;;;;;15.68;100.00;100769.10;4943640;58;1141332;-66
2023/09/02 00:10:51;;;;;;;12.73;4.73;;;;;;;15.64;100.00;100761.52;5098450;56;1143237;-66
2023/09/02 00:15:56;;;;;;;8.87;4.00;;;;;;;15.62;100.00;100768.34;4943861;58;1143212;-66
2023/09/02 00:21:02;;;;;;;13.83;5.17;;;;;;;15.53;100.00;100766.52;5078952;56;1140928;-65
2023/09/02 00:26:08;;;;;;;8.50;4.58;;;;;;;15.39;100.00;100756.32;5098732;56;1143000;-66
2023/09/02 00:31:13;;;;;;;13.20;4.17;;;;;;;15.39;100.00;100759.83;5023784;57;1141297;-66
2023/09/02 00:36:19;;;;;;;13.53;5.30;;;;;;;15.35;100.00;100770.91;5077265;56;1143133;-66
2023/09/02 00:41:31;;;;;;;14.33;5.60;;;;;;;15.31;100.00;100769.02;5044306;57;1143362;-66
2023/09/02 00:46:37;;;;;;;15.60;4.70;;;;;;;15.29;100.00;100770.14;5078613;56;1143033;-65
2023/09/02 00:51:43;;;;;;;14.68;5.28;;;;;;;15.22;100.00;100769.05;4997747;56;1143200;-67
2023/09/02 00:56:49;;;;;;;15.07;4.33;;;;;;;15.09;100.00;100774.67;5015764;56;1142922;-65
2023/09/02 01:01:57;;;;;;;16.03;4.03;;;;;;;15.02;100.00;100769.55;5003429;56;1142927;-67
2023/09/02 01:07:04;;;;;;;8.08;3.92;;;;;;;14.95;100.00;100769.29;5113539;56;1142726;-65
2023/09/02 01:12:10;;;;;;;7.17;3.55;;;;;;;14.83;100.00;100769.55;5133640;56;1140820;-66
2023/09/02 01:17:15;;;;;;;9.00;3.93;;;;;;;14.81;100.00;100769.72;5113406;56;1140780;-66
2023/09/02 01:22:51;;;;;;;13.15;4.90;;;;;;;14.78;100.00;100772.16;5113231;56;1140749;-65
2023/09/02 01:28:06;;;;;;;12.28;3.96;;;;;;;14.70;100.00;100778.66;5111300;56;1143078;-65
2023/09/02 01:33:13;;;;;;;11.65;4.15;;;;;;;14.66;100.00;100781.27;5167766;55;1143097;-65
2023/09/02 01:38:24;;;;;;;8.60;4.30;;;;;;;14.64;100.00;100787.70;5146340;55;1143357;-65
2023/09/02 01:43:30;;;;;;;12.77;3.77;;;;;;;14.59;100.00;100786.78;5108566;56;1141213;-66
2023/09/02 01:48:38;;;;;;;8.97;3.77;;;;;;;14.57;100.00;100791.89;5130804;55;1143373;-66
2023/09/02 01:53:44;;;;;;;11.53;3.77;;;;;;;14.48;100.00;100800.70;5113416;56;1140934;-65
2023/09/02 01:58:52;;;;;;;9.83;4.78;;;;;;;14.30;100.00;100791.17;5113078;56;1143103;-67
2023/09/02 02:04:17;;;;;;;11.33;3.63;;;;;;;14.21;100.00;100787.49;5131091;56;1140752;-66
2023/09/02 02:09:47;;;;;;;18.97;5.30;;;;;;;14.14;100.00;100793.51;5078071;56;1142860;-65
2023/09/02 02:14:53;;;;;;;22.47;5.43;;;;;;;14.10;100.00;100804.89;5079203;56;1142651;-66
2023/09/02 02:19:58;;;;;;;17.97;5.43;;;;;;;14.09;100.00;100806.72;4939509;58;1143036;-65
2023/09/02 02:25:04;;;;;;;9.23;5.20;;;;;;;14.06;100.00;100810.97;5097215;56;1142998;-66
2023/09/02 02:30:10;;;;;;;11.45;6.22;;;;;;;14.01;100.00;100815.02;4940714;58;1140880;-66
2023/09/02 02:35:18;;;;;;;16.93;12.67;;;;;;;13.95;100.00;100815.55;5078432;56;1142827;-65
2023/09/02 02:40:23;;;;;;;10.77;5.17;;;;;;;13.92;100.00;100815.31;5098051;56;1145183;-66
2023/09/02 02:45:29;;;;;;;8.10;5.50;;;;;;;13.96;100.00;100813.24;5078408;56;1142889;-65
2023/09/02 02:50:36;;;;;;;10.00;4.50;;;;;;;13.99;100.00;100813.83;5016335;56;1140779;-66
2023/09/02 02:55:44;;;;;;;8.97;5.17;;;;;;;13.96;100.00;100810.09;4995982;56;1143013;-66
2023/09/02 03:00:50;;;;;;;9.97;4.33;;;;;;;13.96;100.00;100810.09;5015681;57;1140767;-66
2023/09/02 03:05:56;;;;;;;7.20;4.50;;;;;;;13.93;100.00;100816.16;5001953;56;1140883;-67
2023/09/02 03:11:05;;;;;;;5.33;3.77;;;;;;;13.84;100.00;100815.64;4944451;58;1141241;-66
2023/09/02 03:16:12;;;;;;;7.28;4.42;;;;;;;13.78;100.00;100824.98;5049308;57;1140800;-66
2023/09/02 03:21:18;;;;;;;10.67;5.10;;;;;;;13.75;100.00;100825.23;4947004;57;1140953;-66
2023/09/02 03:26:26;;;;;;;16.63;5.93;;;;;;;13.65;100.00;100823.02;5028685;56;1143073;-65
2023/09/02 03:31:31;;;;;;;16.33;6.00;;;;;;;13.48;100.00;100824.94;5103582;56;1143088;-65
2023/09/02 03:36:37;;;;;;;22.60;5.80;;;;;;;13.34;100.00;100830.09;5081569;57;1259084;-65
2023/09/02 03:41:42;;;;;;;12.80;6.00;;;;;;;13.26;100.00;100833.41;5083592;57;1142893;-66
2023/09/02 03:46:48;;;;;;;11.25;5.37;;;;;;;13.27;100.00;100835.09;5060875;56;1143366;-65
2023/09/02 03:51:54;;;;;;;16.30;5.57;;;;;;;13.31;100.00;100840.97;5020462;57;1143080;-66
2023/09/02 03:57:01;;;;;;;13.40;5.40;;;;;;;13.31;100.00;100842.30;5063111;56;1143132;-65
2023/09/02 04:02:07;;;;;;;16.93;6.17;;;;;;;13.29;100.00;100847.73;5091963;55;1143117;-65
2023/09/02 04:07:13;;;;;;;15.98;5.75;;;;;;;13.17;100.00;100841.28;5114223;56;1143171;-65
2023/09/02 04:12:18;;;;;;;28.33;5.57;;;;;;;13.03;100.00;100851.21;5141134;56;1142904;-66
2023/09/02 04:17:24;;;;;;;11.40;5.13;;;;;;;12.96;100.00;100850.05;5039284;56;1143200;-67
2023/09/02 04:22:30;;;;;;;17.97;6.17;;;;;;;12.89;100.00;100864.78;5031554;56;1143227;-66
2023/09/02 04:27:36;;;;;;;20.15;7.30;;;;;;;12.75;100.00;100873.50;5023728;56;1143047;-66
2023/09/02 04:32:42;;;;;;;23.73;6.20;;;;;;;12.68;100.00;100881.11;5024326;56;1142891;-66
2023/09/02 04:37:48;;;;;;;17.53;5.63;;;;;;;12.69;100.00;100894.25;5024345;56;1143236;-65
2023/09/02 04:42:55;;;;;;;24.80;7.40;;;;;;;12.73;100.00;100903.30;5043959;56;1143314;-66
2023/09/02 04:48:03;;;;;;;18.73;7.53;;;;;;;12.77;100.00;100905.59;5005699;56;1143052;-66
2023/09/02 04:53:16;;;;;;;9.73;5.15;;;;;;;12.80;100.00;100914.64;4972714;56;1142985;-66
2023/09/02 04:58:23;;;;;;;15.30;6.00;;;;;;;12.87;100.00;100912.32;5044140;56;1140725;-66
2023/09/02 05:03:28;;;;;;;9.73;4.80;;;;;;;12.92;100.00;100916.30;5000195;56;1142854;-66
2023/09/02 05:08:35;;;;;;;5.57;4.23;;;;;;;12.95;100.00;100924.02;5118393;56;1140679;-66
2023/09/02 05:13:41;;;;;;;8.53;3.97;;;;;;;12.96;100.00;100924.39;5117268;56;1141018;-65
2023/09/02 05:18:47;;;;;;;8.60;4.50;;;;;;;13.04;100.00;100924.59;5132253;56;1140776;-65
2023/09/02 05:23:53;;;;;;;10.77;4.77;;;;;;;13.17;100.00;100936.41;5113056;56;1140649;-67
2023/09/02 05:28:59;;;;;;;6.93;4.33;;;;;;;13.14;100.00;100932.64;5116745;56;1142780;-68
2023/09/02 05:34:05;;;;;;;7.00;5.47;;;;;;;13.09;100.00;100937.98;5118788;56;1141059;-66
2023/09/02 05:39:10;;;;;;;8.90;5.05;;;;;;;13.09;100.00;100936.66;5113746;56;1140862;-66
2023/09/02 05:44:16;;;;;;;7.87;5.10;;;;;;;13.18;100.00;100936.77;5113584;56;1141108;-65
2023/09/02 05:49:22;;;;;;;9.50;5.00;;;;;;;13.55;100.00;100939.91;5100250;56;1141013;-66
2023/09/02 05:54:27;;;;;;;5.63;4.83;;;;;;;13.82;100.00;100944.72;5113029;56;1140880;-66
2023/09/02 05:59:33;;;;;;;8.70;5.17;;;;;;;14.06;100.00;100941.77;5112775;55;1140798;-66
2023/09/02 06:04:38;;;;;;;9.33;5.13;;;;;;;14.33;100.00;100938.59;5036266;56;1140835;-67
2023/09/02 06:09:45;;;;;;;7.67;5.43;;;;;;;14.65;100.00;100955.78;5127742;55;1140880;-67
2023/09/02 06:14:51;;;;;;;11.27;5.93;;;;;;;14.88;100.00;100943.92;4998037;57;1140901;-67
2023/09/02 06:19:57;;;;;;;12.87;5.53;;;;;;;15.07;100.00;100944.47;4965438;57;1143477;-65
2023/09/02 06:25:03;;;;;;;7.33;4.70;;;;;;;15.31;100.00;100946.73;5039831;57;1143287;-66
2023/09/02 06:30:09;;;;;;;7.58;4.65;;;;;;;15.56;100.00;100953.38;5022466;56;1140939;-65
2023/09/02 06:35:15;;;;;;;9.43;5.30;;;;;;;15.61;100.00;100955.95;4999870;57;1141136;-66
2023/09/02 06:40:21;;;;;;;6.87;4.30;;;;;;;15.76;100.00;100959.03;5027913;57;1140929;-67
2023/09/02 06:45:29;;;;;;;4.97;4.00;;;;;;;16.00;100.00;100962.61;5105403;55;1140978;-65
2023/09/02 06:50:35;;;;;;;9.90;4.00;;;;;;;16.14;100.00;100971.49;5107660;56;1141145;-67
2023/09/02 06:55:41;;;;;;;7.70;4.40;;;;;;;16.40;100.00;100973.88;5113019;56;1141267;-66
2023/09/02 07:00:48;;;;;;;9.93;3.27;;;;;;;16.65;100.00;100988.94;5132577;56;1140797;-65
2023/09/02 07:05:53;;;;;;;7.27;3.87;;;;;;;16.81;100.00;100996.64;5113470;56;1140895;-66
2023/09/02 07:10:59;;;;;;;5.23;3.13;;;;;;;16.83;100.00;100993.83;5112097;56;1159089;-66
2023/09/02 07:16:06;;;;;;;4.74;3.00;;;;;;;16.91;100.00;100993.11;5049711;56;1140938;-65
2023/09/02 07:21:12;;;;;;;4.10;3.00;;;;;;;17.08;100.00;100997.17;4945036;57;1140992;-66
2023/09/02 07:26:18;;;;;;;4.65;2.60;;;;;;;17.22;100.00;101002.50;4952634;58;1141003;-66
2023/09/02 07:31:24;;;;;;;12.93;3.53;;;;;;;17.40;100.00;101001.19;5031776;57;1140791;-67
2023/09/02 07:36:30;;;;;;;6.03;3.30;;;;;;;17.52;100.00;101012.85;4967767;57;1143073;-67
2023/09/02 07:41:36;;;;;;;7.30;2.80;;;;;;;17.61;100.00;101020.45;5024298;56;1140810;-66
2023/09/02 07:46:41;;;;;;;7.83;2.37;;;;;;;17.69;100.00;101023.25;5047900;56;1140703;-67
2023/09/02 07:51:47;;;;;;;4.33;2.57;;;;;;;17.88;100.00;101027.08;5102854;56;1140697;-66
2023/09/02 07:56:52;;;;;;;3.43;2.00;;;;;;;18.08;100.00;101030.44;5072605;56;1141016;-66
2023/09/02 08:01:58;;;;;;;4.40;2.37;;;;;;;18.21;100.00;101031.37;5018947;55;1141214;-67
2023/09/02 08:07:05;;;;;;;4.87;1.80;;;;;;;18.33;100.00;101030.64;5018056;56;1140912;-67
2023/09/02 08:12:11;;;;;;;4.47;2.02;;;;;;;18.51;100.00;101046.98;5011324;55;1140564;-67
2023/09/02 08:17:19;;;;;;;2.27;1.43;;;;;;;18.73;100.00;101044.81;5036718;56;1140827;-66
2023/09/02 08:22:25;;;;;;;3.74;1.60;;;;;;;18.83;100.00;101045.03;5108126;55;1141265;-67
2023/09/02 08:27:30;;;;;;;3.15;1.50;;;;;;;18.95;100.00;101046.42;5067413;56;1140764;-69
2023/09/02 08:32:36;;;;;;;2.52;1.40;;;;;;;19.07;100.00;101053.71;5063466;56;1141017;-67
2023/09/02 08:37:42;;;;;;;4.03;1.82;;;;;;;19.21;100.00;101062.48;5058792;55;1140936;-68
2023/09/02 08:42:50;;;;;;;1.98;1.70;;;;;;;19.38;100.00;101071.43;5099920;55;1140982;-67
2023/09/02 08:48:00;;;;;;;2.50;1.52;;;;;;;19.47;100.00;101073.63;5083569;56;1140785;-68
2023/09/02 08:53:06;;;;;;;2.65;1.70;;;;;;;19.53;99.71;101073.86;5029300;56;1140944;-68
2023/09/02 08:58:13;;;;;;;3.33;1.40;;;;;;;19.65;98.98;101071.20;5063555;55;1138708;-66
2023/09/02 09:03:20;;;;;;;2.92;1.57;;;;;;;19.75;97.90;101073.72;5051494;55;1138964;-68
2023/09/02 09:08:28;;;;;;;1.77;1.40;;;;;;;19.86;96.05;101073.92;5056183;55;1138619;-67
2023/09/02 09:13:36;;;;;;;2.27;1.50;;;;;;;19.94;97.41;101080.13;5156770;55;1139013;-67
2023/09/02 09:18:42;;;;;;;3.58;1.60;;;;;;;20.09;99.11;101076.78;5086364;55;1138742;-73
2023/09/02 09:23:48;;;;;;;2.20;1.17;;;;;;;20.22;97.64;101074.44;5133977;55;1139173;-77
2023/09/02 09:28:57;;;;;;;1.85;1.37;;;;;;;20.34;97.07;101080.64;5124007;56;1138598;-75
2023/09/02 09:34:04;;;;;;;3.68;1.18;;;;;;;20.48;95.61;101082.34;5059046;56;1144723;-71
2023/09/02 09:39:10;;;;;;;3.87;1.27;;;;;;;20.58;96.16;101089.73;5178139;55;1138869;-73
2023/09/02 09:44:18;;;;;;;2.10;1.23;;;;;;;20.73;98.56;101094.75;5063888;57;1138941;-75
2023/09/02 09:49:31;;;;;;;1.77;1.20;;;;;;;20.81;94.66;101099.26;5133064;56;1138629;-74
2023/09/02 09:54:45;;;;;;;3.22;1.80;;;;;;;20.92;95.15;101107.83;5128090;56;1138811;-75
2023/09/02 09:59:52;;;;;;;4.95;1.80;;;;;;;21.05;95.67;101107.28;5134170;55;1139048;-74
2023/09/02 10:05:03;;;;;;;2.15;1.10;;;;;;;21.22;97.08;101106.25;5075651;56;1138978;-75
2023/09/02 10:10:09;;;;;;;3.80;1.26;;;;;;;21.48;96.15;101114.05;5026732;56;1138930;-76
2023/09/02 10:15:14;;;;;;;7.67;1.60;;;;;;;21.58;93.42;101126.77;5035743;56;1138979;-76
2023/09/02 10:20:24;;;;;;;5.55;1.20;;;;;;;21.61;93.54;101120.20;5102891;55;1139232;-76
2023/09/02 10:25:34;;;;;;;4.53;1.42;;;;;;;21.52;94.16;101123.45;4987637;56;1138983;-74
2023/09/02 10:30:52;;;;;;;1.15;0.90;;;;;;;21.32;92.39;101122.18;4989950;57;1138670;-75
2023/09/02 10:36:00;;;;;;;1.00;1.00;;;;;;;21.49;91.90;101127.83;5047637;56;1138686;-74
2023/09/02 10:41:13;;;;;;;2.47;1.37;;;;;;;21.59;90.49;101124.91;5035422;56;1138785;-75
2023/09/02 10:46:19;;;;;;;7.78;1.15;;;;;;;21.78;93.93;101124.48;5018824;57;1138720;-74
2023/09/02 10:56:38;;;;;;;4.10;2.37;;;;;;;21.96;92.20;101126.40;5214756;55;47278;-73
2023/09/02 11:01:49;;;;;;;1.95;1.30;;;;;;;21.77;92.40;101126.84;4954794;57;1134774;-73
2023/09/02 11:07:24;;;;;;;2.00;1.43;;;;;;;21.93;91.69;101132.13;4837177;58;1138826;-72
2023/09/02 11:12:33;;;;;;;2.27;1.25;;;;;;;22.20;92.25;101132.14;4955300;57;1138966;-74
2023/09/02 11:17:40;;;;;;;2.40;1.50;;;;;;;22.23;88.45;101139.88;4912529;57;1138944;-73
2023/09/02 11:23:01;;;;;;;5.85;1.25;;;;;;;22.36;92.23;101133.88;4988386;56;1138751;-74
2023/09/02 11:28:11;;;;;;;5.65;1.52;;;;;;;22.67;91.83;101133.78;5139246;55;1138687;-73
2023/09/02 11:33:21;;;;;;;1.22;1.12;;;;;;;22.97;91.97;101135.53;4995858;56;1138843;-75
2023/09/02 11:38:27;;;;;;;2.00;1.50;;;;;;;23.01;88.67;101139.55;5100727;55;1138844;-74
2023/09/02 11:43:34;;;;;;;2.85;1.50;;;;;;;22.68;87.71;101143.03;5142000;55;1138650;-74
2023/09/02 11:48:41;;;;;;;3.50;1.15;;;;;;;22.64;87.86;101144.92;5224772;55;1138812;-76
2023/09/02 11:53:46;;;;;;;2.83;1.35;;;;;;;22.87;90.20;101136.32;5170640;55;1138653;-74
2023/09/02 11:58:52;;;;;;;2.40;1.37;;;;;;;23.26;92.53;101129.30;5136661;55;1138694;-73
2023/09/02 12:03:58;;;;;;;1.60;1.37;;;;;;;23.46;90.45;101133.62;5145634;55;1138807;-75
2023/09/02 12:09:04;;;;;;;1.12;1.04;;;;;;;23.48;86.52;101128.87;5159564;55;1139185;-74
2023/09/02 12:14:10;;;;;;;7.00;2.37;;;;;;;23.53;84.26;101133.20;5153168;55;1138801;-76
2023/09/02 12:19:16;;;;;;;1.30;1.15;;;;;;;23.42;88.11;101130.45;5154404;55;1138810;-76
2023/09/02 12:24:22;;;;;;;0.95;0.93;;;;;;;23.75;89.44;101127.36;5162720;55;1138805;-74
2023/09/02 12:29:27;;;;;;;1.07;1.00;;;;;;;24.04;87.15;101125.08;5213262;55;1138676;-75
2023/09/02 12:34:36;;;;;;;1.77;1.30;;;;;;;24.04;85.28;101116.45;5221586;55;1138644;-75
2023/09/02 12:39:41;;;;;;;2.30;1.47;;;;;;;24.19;83.92;101129.91;5190320;55;1139022;-75
2023/09/02 12:44:53;;;;;;;6.67;1.77;;;;;;;24.25;81.30;101121.07;5241564;55;1138889;-76
2023/09/02 12:50:05;;;;;;;;;;;;;;;24.31;79.35;101123.50;5157716;55;1138992;-75
2023/09/02 12:55:08;;;;;;;28.30;3.25;;;;;;;24.40;78.09;101131.81;5152381;55;976070;-77
2023/09/02 13:00:14;;;;;;;5.40;2.55;;;;;;;24.53;77.66;101138.17;5173336;55;1139002;-76
2023/09/02 13:05:19;;;;;;;3.70;1.80;;;;;;;24.45;77.98;101137.45;5148352;55;1148489;-75
2023/09/02 13:10:25;;;;;;;5.92;1.80;;;;;;;24.53;80.07;101137.33;5230831;55;1138907;-76
2023/09/02 13:15:31;;;;;;;21.68;3.75;;;;;;;24.62;79.61;101134.80;5250873;55;1138805;-76
2023/09/02 13:20:37;;;;;;;1.37;1.20;;;;;;;24.68;78.64;101133.19;5228400;55;1140813;-76
2023/09/02 13:25:42;;;;;;;5.65;1.30;;;;;;;24.69;77.88;101135.70;5209544;55;1138647;-76
2023/09/02 13:30:48;;;;;;;1.70;1.13;;;;;;;24.44;76.50;101140.67;5160569;55;1138961;-76
2023/09/02 13:35:54;;;;;;;2.67;1.00;;;;;;;24.36;78.83;101143.52;5161658;56;1138885;-76
2023/09/02 13:41:00;;;;;;;2.98;1.42;;;;;;;24.52;75.72;101138.36;5091399;55;1138749;-76
2023/09/02 13:46:09;;;;;;;2.60;1.00;;;;;;;24.70;75.22;101141.95;5000147;57;1138677;-76
2023/09/02 13:51:17;;;;;;;1.75;1.00;;;;;;;24.75;74.21;101141.66;5151808;55;1138950;-76
2023/09/02 13:56:23;;;;;;;1.77;1.17;;;;;;;24.64;72.62;101144.06;5179159;55;1138844;-76
2023/09/02 14:01:32;;;;;;;1.95;1.12;;;;;;;24.53;76.26;101139.52;5135410;56;1138688;-76
2023/09/02 14:06:40;;;;;;;1.37;0.95;;;;;;;24.67;75.45;101138.27;5152952;55;1138874;-76
2023/09/02 14:11:46;;;;;;;1.75;0.80;;;;;;;24.60;73.13;101129.26;5139371;55;1138680;-76
2023/09/02 14:16:51;;;;;;;2.17;1.12;;;;;;;;;;5083482;55;1138895;-76
2023/09/02 14:21:57;;;;;;;1.45;1.35;;;;;;;24.73;73.60;101136.98;5131919;56;817667;-75
2023/09/02 14:27:17;;;;;;;1.75;0.93;;;;;;;24.83;71.20;101144.75;5125672;56;1136512;-76
2023/09/02 14:32:23;;;;;;;1.33;0.97;;;;;;;24.57;71.71;101138.63;5214811;55;1138731;-75
2023/09/02 14:37:30;;;;;;;2.40;0.98;;;;;;;24.51;73.25;101140.23;5241432;55;1138779;-76
2023/09/02 14:42:36;;;;;;;3.17;0.80;;;;;;;24.37;72.86;101137.09;5228925;55;1138644;-76
2023/09/02 14:47:47;;;;;;;1.05;0.80;;;;;;;24.14;74.37;101143.99;5230907;55;1138935;-76
2023/09/02 14:52:49;;;;;;;3.87;1.87;;;;;;;24.14;74.37;101143.99;5148795;55;1138853;-76
2023/09/02 14:57:55;;;;;;;2.25;1.30;;;;;;;24.20;73.93;101136.48;5172319;55;1138839;-76
2023/09/02 15:03:02;;;;;;;1.57;1.07;;;;;;;24.30;74.02;101139.39;5158700;55;1138640;-76
2023/09/02 15:08:09;;;;;;;5.08;1.74;;;;;;;24.19;73.74;101144.27;5112251;56;1138507;-76
2023/09/02 15:13:15;;;;;;;2.22;1.02;;;;;;;24.13;73.72;101149.10;5104114;56;1138560;-76
2023/09/02 15:18:30;;;;;;;1.82;1.35;;;;;;;23.90;74.64;101148.93;5098646;56;1138597;-76
2023/09/02 15:23:37;;;;;;;1.92;1.80;;;;;;;23.70;76.83;101151.39;5107297;55;1138733;-76
2023/09/02 15:28:44;;;;;;;1.60;1.40;;;;;;;23.53;78.50;101158.05;5104480;56;1138878;-75
2023/09/02 15:33:49;;;;;;;5.40;3.55;;;;;;;23.46;79.43;101161.46;5093909;56;1138766;-75
2023/09/02 15:38:57;;;;;;;4.60;2.83;;;;;;;23.50;81.05;101160.07;5045029;56;1139000;-76
2023/09/02 15:44:04;;;;;;;6.45;2.98;;;;;;;23.54;81.82;101151.59;5084574;55;1139059;-75
2023/09/02 15:49:10;;;;;;;3.90;1.92;;;;;;;23.64;80.49;101151.66;5139662;56;1138964;-77
2023/09/02 15:54:15;;;;;;;3.37;1.92;;;;;;;23.80;81.71;101150.59;5102495;56;1139007;-75
2023/09/02 15:59:21;;;;;;;6.47;2.00;;;;;;;23.91;81.57;101157.36;5099525;55;1138744;-75
2023/09/02 16:04:27;;;;;;;1.50;1.40;;;;;;;23.95;81.06;101152.75;5110114;55;1138770;-75
2023/09/02 16:09:32;;;;;;;3.70;1.80;;;;;;;23.99;80.61;101154.53;5104570;55;1138646;-75
2023/09/02 16:14:38;;;;;;;7.55;1.80;;;;;;;24.04;80.44;101150.75;5109269;55;1138571;-75
2023/09/02 16:19:43;;;;;;;1.57;1.47;;;;;;;24.01;80.56;101164.64;5102415;55;1138686;-75
2023/09/02 16:24:51;;;;;;;2.27;1.12;;;;;;;24.02;78.90;101156.34;5128029;55;1138666;-75
2023/09/02 16:29:56;;;;;;;3.85;1.30;;;;;;;23.89;78.44;101155.36;5147645;55;1138642;-76
2023/09/02 16:35:04;;;;;;;1.50;1.40;;;;;;;23.75;78.35;101159.26;5167889;55;1138684;-76
2023/09/02 16:40:11;;;;;;;2.98;1.52;;;;;;;23.67;78.93;101166.14;5061214;57;1259125;-75
2023/09/02 16:45:17;;;;;;;2.30;1.40;;;;;;;23.56;78.82;101167.11;4980453;56;1138441;-74
2023/09/02 16:50:23;;;;;;;4.90;1.30;;;;;;;23.37;78.44;101172.55;4975716;57;1148137;-74
2023/09/02 16:55:29;;;;;;;1.32;1.07;;;;;;;23.19;78.99;101175.61;5112456;56;1138471;-76
2023/09/02 17:00:36;;;;;;;1.62;1.02;;;;;;;23.04;79.33;101186.39;5120983;56;1139111;-75
2023/09/02 17:05:44;;;;;;;3.72;1.20;;;;;;;22.89;80.19;101176.60;5030632;57;1138673;-76
2023/09/02 17:10:51;;;;;;;3.87;1.53;;;;;;;22.80;80.47;101179.87;5044981;57;1138850;-74
2023/09/02 17:15:57;;;;;;;48.20;10.58;;;;;;;22.67;80.71;101184.50;5028974;57;1138586;-75
2023/09/02 17:21:03;;;;;;;3.35;1.65;;;;;;;22.60;82.47;101179.52;4963060;58;1142760;-76
2023/09/02 17:26:09;;;;;;;10.68;4.35;;;;;;;22.52;82.38;101183.62;5049155;57;1138639;-76
2023/09/02 17:31:14;;;;;;;6.65;4.10;;;;;;;22.51;83.76;101183.80;5073625;56;1140947;-75
2023/09/02 17:36:20;;;;;;;14.40;8.38;;;;;;;22.59;84.63;101171.61;5049947;57;1138912;-76
2023/09/02 17:41:25;;;;;;;33.77;15.57;;;;;;;22.60;85.46;101175.48;4963779;58;1141181;-75
2023/09/02 17:46:31;;;;;;;99.70;42.55;;;;;;;22.58;85.86;101180.21;5069250;57;1143034;-76
2023/09/02 17:51:36;;;;;;;67.27;31.48;;;;;;;22.48;87.21;101197.62;4993157;57;1143239;-75
2023/09/02 17:56:42;;;;;;;59.33;23.18;;;;;;;22.48;87.21;101197.62;4969952;58;1142798;-76
2023/09/02 18:01:48;;;;;;;24.70;11.22;;;;;;;22.16;87.20;101204.91;5044193;57;1142727;-76
2023/09/02 18:06:53;;;;;;;33.20;13.70;;;;;;;22.00;88.73;101206.35;4908862;57;1143165;-76
2023/09/02 18:11:59;;;;;;;26.02;12.50;;;;;;;21.82;89.44;101217.88;4879463;58;1142871;-75
2023/09/02 18:17:05;;;;;;;14.63;8.13;;;;;;;21.71;90.19;101219.08;4878908;58;1142914;-75
2023/09/02 18:22:11;;;;;;;14.15;9.25;;;;;;;21.65;90.85;101225.19;4923952;58;1140630;-76
2023/09/02 18:27:22;;;;;;;12.53;6.85;;;;;;;21.60;91.50;101230.23;5007931;57;1140837;-75
2023/09/02 18:32:29;;;;;;;25.08;16.48;;;;;;;21.56;91.73;101236.47;4919679;58;1141000;-75
2023/09/02 18:37:34;;;;;;;28.07;16.42;;;;;;;21.51;92.84;101238.02;4958501;58;1142807;-75
2023/09/02 18:42:40;;;;;;;16.57;11.38;;;;;;;21.45;93.44;101236.00;4939391;58;1142970;-75
2023/09/02 18:47:45;;;;;;;17.30;9.65;;;;;;;21.34;93.79;101247.47;5080219;55;1143093;-76
2023/09/02 18:52:51;;;;;;;16.57;11.57;;;;;;;21.28;94.10;101254.03;5183339;55;1140852;-75
2023/09/02 18:57:56;;;;;;;28.40;15.88;;;;;;;21.12;94.38;101252.67;5204865;56;1142805;-76
2023/09/02 19:03:02;;;;;;;22.30;12.78;;;;;;;20.90;94.59;101254.21;5184805;55;1142743;-76
2023/09/02 19:08:08;;;;;;;26.52;14.38;;;;;;;20.80;95.65;101259.73;5130759;55;1143073;-75
2023/09/02 19:13:14;;;;;;;6.95;2.45;;;;;;;20.83;96.87;101266.12;5137405;55;1142857;-76
2023/09/02 19:18:19;;;;;;;5.17;1.82;;;;;;;20.81;97.30;101270.83;5119512;55;1138671;-77
2023/09/02 19:23:25;;;;;;;5.87;3.40;;;;;;;20.75;97.43;101271.52;5109468;55;1138639;-76
2023/09/02 19:28:31;;;;;;;7.25;5.45;;;;;;;20.65;97.42;101270.81;5094808;55;1138832;-76
2023/09/02 19:33:37;;;;;;;7.30;5.05;;;;;;;20.52;97.51;101271.80;5093705;56;1138566;-75
2023/09/02 19:38:42;;;;;;;7.33;4.55;;;;;;;20.34;97.61;101278.11;5104310;56;1138659;-76
2023/09/02 19:43:48;;;;;;;4.40;3.03;;;;;;;20.25;98.18;101273.73;5103597;56;1138584;-76
2023/09/02 19:48:53;;;;;;;4.95;2.87;;;;;;;20.14;98.08;101281.25;5105025;56;1138500;-76
2023/09/02 19:53:59;;;;;;;9.33;6.10;;;;;;;20.07;98.51;101281.55;5088335;56;1138584;-77
2023/09/02 19:59:04;;;;;;;7.40;5.90;;;;;;;19.91;98.73;101285.00;5107419;55;1138764;-76
2023/09/02 20:04:10;;;;;;;24.10;17.42;;;;;;;19.89;99.55;101289.69;5064531;56;1138740;-76
2023/09/02 20:09:16;;;;;;;16.15;8.03;;;;;;;19.84;99.80;101290.69;5051694;56;1142826;-77
2023/09/02 20:14:21;;;;;;;8.93;4.97;;;;;;;19.78;100.00;101283.27;5145571;55;1140881;-76
2023/09/02 20:19:28;;;;;;;16.00;3.87;;;;;;;19.69;100.00;101285.08;5112262;55;1140781;-76
2023/09/02 20:24:36;;;;;;;8.08;3.30;;;;;;;19.59;100.00;101280.30;5071478;56;1143005;-76
2023/09/02 20:29:40;;;;;;;6.22;2.22;;;;;;;19.48;100.00;101280.55;5182875;55;1141124;-75
2023/09/02 20:34:46;;;;;;;5.30;3.12;;;;;;;19.39;100.00;101277.48;5161768;55;1140884;-75
2023/09/02 20:39:52;;;;;;;5.97;2.50;;;;;;;19.30;100.00;101274.73;5140043;55;1141070;-75
2023/09/02 20:44:58;;;;;;;4.05;2.33;;;;;;;19.26;100.00;101276.03;5140150;55;1141098;-75
2023/09/02 20:50:03;;;;;;;5.42;2.83;;;;;;;19.23;100.00;101279.55;5157163;55;1141118;-75
2023/09/02 20:55:09;;;;;;;9.58;3.60;;;;;;;19.15;100.00;101283.00;5148932;55;1140905;-76
2023/09/02 21:00:16;;;;;;;3.62;2.42;;;;;;;19.07;100.00;101282.95;5097415;55;1197003;-77
2023/09/02 21:05:24;;;;;;;6.70;4.58;;;;;;;18.96;100.00;101283.17;5204174;55;1140897;-75
2023/09/02 21:10:29;;;;;;;5.75;3.80;;;;;;;18.87;100.00;101291.66;5240473;55;1141029;-76
2023/09/02 21:15:39;;;;;;;3.08;2.77;;;;;;;18.77;100.00;101287.38;5170704;55;1140966;-75
2023/09/02 21:20:44;;;;;;;5.60;2.98;;;;;;;18.54;100.00;101274.88;5141724;55;1140739;-75
2023/09/02 21:25:50;;;;;;;2.50;2.30;;;;;;;18.54;100.00;101274.88;5165494;55;1140821;-76
2023/09/02 21:30:56;;;;;;;4.35;3.08;;;;;;;18.53;100.00;101279.39;5152380;55;1140840;-76
2023/09/02 21:36:02;;;;;;;8.70;4.03;;;;;;;18.21;100.00;101271.84;5052482;56;1141111;-76
2023/09/02 21:41:08;;;;;;;10.03;3.17;;;;;;;18.08;100.00;101270.02;5124279;55;1141059;-76
2023/09/02 21:46:14;;;;;;;16.60;10.90;;;;;;;18.03;100.00;101270.11;5208699;55;1142780;-75
2023/09/02 21:51:21;;;;;;;14.65;8.55;;;;;;;17.87;100.00;101278.29;5213822;55;1144934;-76
2023/09/02 21:56:27;;;;;;;50.67;22.30;;;;;;;17.65;100.00;101276.50;5230597;55;1143045;-75
2023/09/02 22:01:33;;;;;;;35.23;14.20;;;;;;;17.52;100.00;101280.80;5250743;55;1144970;-76
2023/09/02 22:06:39;;;;;;;13.43;7.62;;;;;;;17.58;100.00;101283.72;5229898;55;1144955;-76
2023/09/02 22:11:44;;;;;;;11.22;5.72;;;;;;;17.52;100.00;101284.81;5176581;55;1142971;-75
2023/09/02 22:16:50;;;;;;;9.83;5.20;;;;;;;17.49;100.00;101278.41;5122474;55;1143126;-75
2023/09/02 22:21:58;;;;;;;10.57;4.07;;;;;;;17.51;100.00;101282.63;5129232;56;1141094;-75
2023/09/02 22:27:03;;;;;;;15.15;8.65;;;;;;;17.51;100.00;101282.63;5108707;56;1143077;-75
2023/09/02 22:32:08;;;;;;;15.12;8.22;;;;;;;17.35;100.00;101302.94;5108210;56;1143028;-75
2023/09/02 22:37:14;;;;;;;9.93;7.30;;;;;;;17.15;100.00;101298.10;5129013;56;1142964;-76
2023/09/02 22:42:19;;;;;;;11.43;8.43;;;;;;;17.13;100.00;101298.24;5170608;55;1140770;-75
2023/09/02 22:47:25;;;;;;;16.47;9.20;;;;;;;17.13;100.00;101302.25;5130715;55;1142847;-76
2023/09/02 22:52:30;;;;;;;9.88;6.30;;;;;;;17.08;100.00;101303.19;5215748;55;1142983;-76
2023/09/02 22:57:37;;;;;;;7.35;4.72;;;;;;;17.11;100.00;101312.23;5195051;55;1140911;-76
2023/09/02 23:02:43;;;;;;;6.43;4.77;;;;;;;17.15;100.00;101313.65;5195237;55;1140740;-76
2023/09/02 23:07:49;;;;;;;7.72;4.78;;;;;;;17.16;100.00;101309.99;5145890;55;1141085;-76